Time;durP1;ratioP1;P1;durP2;ratioP2;P2;SDS_P1;SDS_P2;PMS_P1;PMS_P2;Temp;Humidity;BMP_temperature;BMP_pressure;BME280_temperature;BME280_humidity;BME280_pressure;Samples;Min_cycle;Max_cycle;Signal;HPM_P1;HPM_P2
2023/11/25 00:00:21;;;;;;;9.70;2.20;;;;;;;1.81;82.28;97756.94;5065311;28;20070;-82
2023/11/25 00:02:48;;;;;;;4.68;2.30;;;;;;;2.05;81.29;97769.16;5053178;28;20033;-82
2023/11/25 00:05:14;;;;;;;7.80;2.20;;;;;;;1.86;82.33;97743.09;5070476;28;20032;-81
2023/11/25 00:07:39;;;;;;;5.40;2.58;;;;;;;2.04;81.68;97756.25;5050881;28;20396;-81
2023/11/25 00:10:05;;;;;;;5.07;2.03;;;;;;;1.82;81.95;97762.97;5069087;28;20036;-82
2023/11/25 00:12:31;;;;;;;3.47;2.17;;;;;;;2.02;81.79;97753.84;5065795;28;20044;-81
2023/11/25 00:14:56;;;;;;;4.28;2.30;;;;;;;1.96;81.38;97753.91;5049931;28;20501;-81
2023/11/25 00:17:24;;;;;;;5.38;2.28;;;;;;;1.81;81.76;97764.00;5056231;28;20032;-81
2023/11/25 00:19:52;;;;;;;4.90;2.00;;;;;;;1.88;81.71;97770.00;5047936;28;20045;-81
2023/11/25 00:22:18;;;;;;;4.55;2.42;;;;;;;1.90;80.90;97778.47;5045863;28;20055;-81
2023/11/25 00:24:43;;;;;;;6.75;2.03;;;;;;;1.73;81.51;97786.13;5046240;28;20032;-81
2023/11/25 00:27:08;;;;;;;9.38;2.08;;;;;;;2.06;81.09;97785.75;5047131;28;20044;-81
2023/11/25 00:29:34;;;;;;;6.47;2.17;;;;;;;1.95;81.96;97778.59;5070192;28;20117;-81
2023/11/25 00:32:01;;;;;;;3.20;1.17;;;;;;;2.04;81.46;97780.72;5049772;28;20481;-81
2023/11/25 00:34:26;;;;;;;9.90;2.70;;;;;;;2.03;81.34;97792.28;5046310;28;20074;-81
2023/11/25 00:36:52;;;;;;;8.77;2.85;;;;;;;1.85;81.65;97794.91;5061750;28;20509;-80
2023/11/25 00:39:19;;;;;;;3.08;2.00;;;;;;;2.05;80.96;97811.28;5064724;28;20488;-80
2023/11/25 00:41:45;;;;;;;4.53;2.08;;;;;;;1.97;81.22;97808.13;5063005;28;20040;-80
2023/11/25 00:44:11;;;;;;;4.03;2.30;;;;;;;2.00;81.06;97798.00;5065190;28;20040;-80
2023/11/25 00:46:38;;;;;;;6.28;2.22;;;;;;;1.59;81.22;97799.63;5047481;28;21435;-80
2023/11/25 00:49:04;;;;;;;9.43;2.78;;;;;;;2.04;81.05;97808.88;5063163;28;20040;-80
2023/11/25 00:51:30;;;;;;;4.72;2.40;;;;;;;1.70;81.48;97797.09;5046846;28;20070;-80
2023/11/25 00:53:56;;;;;;;10.23;2.78;;;;;;;1.62;81.46;97804.47;5065401;28;20028;-79
2023/11/25 00:56:21;;;;;;;6.35;2.38;;;;;;;1.65;81.59;97819.81;5064303;28;20036;-80
2023/11/25 00:58:47;;;;;;;3.88;1.80;;;;;;;1.62;81.60;97818.41;5065517;28;20029;-80
2023/11/25 01:01:12;;;;;;;7.85;2.60;;;;;;;1.69;80.91;97834.13;5049022;28;20111;-80
2023/11/25 01:03:38;;;;;;;7.30;2.47;;;;;;;1.86;80.73;97833.34;5064810;28;20040;-80
2023/11/25 01:06:07;;;;;;;3.80;1.65;;;;;;;1.76;81.08;97840.13;5066409;28;20040;-80
2023/11/25 01:08:33;;;;;;;7.47;2.03;;;;;;;1.66;80.98;97851.13;5068782;28;20055;-80
2023/11/25 01:10:59;;;;;;;3.70;2.15;;;;;;;1.94;80.71;97862.03;5062403;28;20033;-79
2023/11/25 01:13:24;;;;;;;8.20;2.75;;;;;;;1.82;80.95;97868.19;5063764;28;20029;-79
2023/11/25 01:15:51;;;;;;;10.50;1.95;;;;;;;1.65;80.95;97864.50;5062765;28;20447;-80
2023/11/25 01:18:17;;;;;;;8.85;1.95;;;;;;;1.78;80.58;97869.66;5066477;28;20033;-80
2023/11/25 01:20:42;;;;;;;7.10;3.88;;;;;;;1.64;80.74;97878.69;5072374;28;20162;-79
2023/11/25 01:23:08;;;;;;;6.63;1.75;;;;;;;1.67;80.65;97880.88;5069714;28;20033;-80
2023/11/25 01:25:33;;;;;;;6.28;3.20;;;;;;;1.44;79.84;97892.78;5070741;28;20541;-80
2023/11/25 01:27:58;;;;;;;3.72;1.52;;;;;;;1.38;81.66;97898.91;5068483;28;20046;-80
2023/11/25 01:30:24;;;;;;;3.88;1.58;;;;;;;1.57;80.37;97893.72;5068424;28;20139;-82
2023/11/25 01:32:49;;;;;;;2.83;2.50;;;;;;;1.67;80.41;97886.13;5067042;28;20032;-80
2023/11/25 01:35:15;;;;;;;2.90;1.73;;;;;;;1.60;79.45;97880.13;5082373;28;20805;-80
2023/11/25 01:37:40;;;;;;;8.10;3.97;;;;;;;1.35;80.95;97899.34;5044288;28;20055;-80
2023/11/25 01:40:10;;;;;;;10.18;2.38;;;;;;;1.34;80.62;97892.47;5074618;28;20066;-79
2023/11/25 01:42:36;;;;;;;2.60;1.52;;;;;;;1.55;80.46;97872.09;5065807;28;20128;-80
2023/11/25 01:45:02;;;;;;;8.20;2.47;;;;;;;1.20;79.76;97888.28;5057460;28;20470;-79
2023/11/25 01:47:28;;;;;;;5.30;1.85;;;;;;;1.53;80.49;97907.28;5068833;28;20484;-79
2023/11/25 01:49:53;;;;;;;4.38;1.92;;;;;;;1.06;81.56;97920.13;5070319;28;20024;-80
2023/11/25 01:52:20;;;;;;;9.25;1.98;;;;;;;1.47;80.42;97913.41;5074868;28;20055;-80
2023/11/25 01:54:45;;;;;;;10.07;1.80;;;;;;;1.60;80.03;97916.94;5070285;28;20506;-80
2023/11/25 01:57:12;;;;;;;11.40;2.30;;;;;;;1.29;80.22;97900.16;5072227;28;20024;-80
2023/11/25 01:59:39;;;;;;;11.68;2.40;;;;;;;1.53;80.34;97917.78;5070728;28;20035;-80
2023/11/25 02:02:05;;;;;;;5.55;1.40;;;;;;;1.56;79.77;97910.50;5085320;28;20041;-80
2023/11/25 02:04:32;;;;;;;7.32;1.90;;;;;;;1.53;80.29;97912.53;5069079;28;20036;-79
2023/11/25 02:06:58;;;;;;;11.27;2.33;;;;;;;1.37;80.20;97920.97;5075036;28;20068;-80
2023/11/25 02:09:24;;;;;;;9.88;2.35;;;;;;;1.61;79.83;97923.81;5068394;28;20038;-81
2023/11/25 02:12:00;;;;;;;11.13;1.73;;;;;;;1.46;80.38;97919.66;5057255;28;20021;-79
2023/11/25 02:14:26;;;;;;;10.52;2.25;;;;;;;1.31;80.13;97948.06;5068469;28;20032;-80
2023/11/25 02:16:51;;;;;;;3.42;1.83;;;;;;;1.62;79.65;97942.00;5066628;28;20025;-80
2023/11/25 02:19:18;;;;;;;5.18;2.03;;;;;;;1.54;79.49;97934.38;5064046;28;20028;-80
2023/11/25 02:21:44;;;;;;;10.85;2.08;;;;;;;1.50;79.45;97949.78;5073384;28;20480;-80
2023/11/25 02:24:12;;;;;;;6.05;1.88;;;;;;;1.55;79.88;97953.59;5071383;28;20024;-79
2023/11/25 02:26:37;;;;;;;5.88;1.73;;;;;;;1.41;79.31;97952.88;5066881;28;20383;-79
2023/11/25 02:29:03;;;;;;;8.77;2.15;;;;;;;1.61;79.53;97950.91;5070490;28;20037;-80
2023/11/25 02:31:29;;;;;;;13.13;1.98;;;;;;;1.55;79.05;97940.44;5071413;28;20042;-80
2023/11/25 02:33:55;;;;;;;4.68;2.08;;;;;;;1.73;78.90;97958.91;5051287;28;20110;-80
2023/11/25 02:36:20;;;;;;;4.95;2.33;;;;;;;1.49;79.11;97963.94;5050767;28;20044;-80
2023/11/25 02:38:45;;;;;;;9.18;1.83;;;;;;;1.54;79.50;97963.31;5063397;28;20082;-79
2023/11/25 02:41:11;;;;;;;5.88;2.33;;;;;;;1.64;79.51;97963.63;5065956;28;20036;-80
2023/11/25 02:43:36;;;;;;;7.15;2.50;;;;;;;1.49;79.72;97958.69;5049354;28;20047;-80
2023/11/25 02:46:03;;;;;;;9.02;1.90;;;;;;;1.64;79.37;97957.59;5072171;28;20367;-79
2023/11/25 02:48:29;;;;;;;8.98;2.65;;;;;;;1.65;79.14;97972.31;5067582;28;20021;-80
2023/11/25 02:50:55;;;;;;;2.72;1.70;;;;;;;1.66;78.64;97960.81;5071663;28;20143;-80
2023/11/25 02:53:20;;;;;;;4.57;2.35;;;;;;;1.50;78.75;97962.13;5067911;28;20021;-80
2023/11/25 02:55:46;;;;;;;9.57;2.13;;;;;;;1.47;79.62;97965.97;5062787;28;20028;-80
2023/11/25 02:58:12;;;;;;;4.80;1.58;;;;;;;1.64;79.45;97965.47;5072210;28;20032;-79
2023/11/25 03:00:40;;;;;;;5.57;1.42;;;;;;;1.74;78.73;97956.09;5070467;28;20275;-80
2023/11/25 03:03:17;;;;;;;7.53;1.95;;;;;;;1.75;78.55;97956.91;5071618;28;20036;-81
2023/11/25 03:05:47;;;;;;;12.32;2.22;;;;;;;1.51;78.64;97961.09;5069600;28;20024;-80
2023/11/25 03:08:13;;;;;;;8.10;1.98;;;;;;;1.54;79.09;97952.78;5070036;28;20448;-80
2023/11/25 03:10:41;;;;;;;3.42;1.70;;;;;;;1.49;79.56;97963.94;5065844;28;20063;-80
2023/11/25 03:13:11;;;;;;;13.82;2.33;;;;;;;1.60;79.27;97951.94;5068335;28;20559;-80
2023/11/25 03:15:40;;;;;;;18.77;2.97;;;;;;;1.55;78.84;97953.59;5071948;28;20028;-80
2023/11/25 03:18:06;;;;;;;9.68;1.88;;;;;;;1.56;79.15;97963.91;5070764;28;20119;-80
2023/11/25 03:20:36;;;;;;;9.00;2.70;;;;;;;1.46;79.63;97969.59;5067304;28;20036;-80
2023/11/25 03:23:03;;;;;;;6.82;1.92;;;;;;;1.43;79.78;97959.53;5067717;28;20512;-80
2023/11/25 03:25:30;;;;;;;14.13;3.08;;;;;;;1.53;79.77;97962.50;5072225;28;20151;-79
2023/11/25 03:27:56;;;;;;;11.13;2.42;;;;;;;1.62;79.26;97959.63;5072581;28;20387;-79
2023/11/25 03:30:22;;;;;;;7.13;2.10;;;;;;;1.56;79.99;97950.75;5059238;28;20024;-80
2023/11/25 03:32:48;;;;;;;7.28;1.95;;;;;;;1.68;79.21;97969.28;5065029;28;20020;-79
2023/11/25 03:35:14;;;;;;;8.18;3.95;;;;;;;1.64;79.40;97971.50;5065753;28;20037;-80
2023/11/25 03:37:40;;;;;;;8.38;2.80;;;;;;;1.54;79.81;97968.56;5084339;28;20070;-80
2023/11/25 03:40:07;;;;;;;6.80;2.78;;;;;;;1.65;79.33;97960.00;5048800;28;20388;-80
2023/11/25 03:42:34;;;;;;;11.05;2.10;;;;;;;1.65;78.97;97954.72;5072475;28;20031;-80
2023/11/25 03:45:01;;;;;;;7.57;2.92;;;;;;;1.53;79.08;97962.50;5060979;28;20035;-80
2023/11/25 03:47:26;;;;;;;8.07;2.60;;;;;;;1.63;79.54;97950.69;5066066;28;20047;-80
2023/11/25 03:49:52;;;;;;;7.43;2.05;;;;;;;1.61;80.11;97960.63;5064317;28;20061;-80
2023/11/25 03:52:17;;;;;;;16.75;3.20;;;;;;;1.58;79.91;97966.31;5048028;28;20025;-80
2023/11/25 03:54:43;;;;;;;15.57;3.47;;;;;;;1.61;79.72;97945.66;5048460;28;20120;-80
2023/11/25 03:57:08;;;;;;;9.80;2.53;;;;;;;1.60;80.05;97951.13;5065544;28;20438;-80
2023/11/25 03:59:34;;;;;;;9.85;2.83;;;;;;;1.70;80.06;97948.84;5042567;28;20031;-79
2023/11/25 04:01:59;;;;;;;11.80;3.40;;;;;;;1.67;80.08;97959.75;5062761;28;20054;-80
2023/11/25 04:04:25;;;;;;;9.23;2.95;;;;;;;1.60;80.34;97964.25;5065712;28;20081;-80
2023/11/25 04:06:50;;;;;;;9.80;3.22;;;;;;;1.57;80.42;97948.94;5070373;28;20035;-80
2023/11/25 04:09:15;;;;;;;10.73;3.42;;;;;;;1.56;80.62;97931.53;5068134;28;20124;-79
2023/11/25 04:11:45;;;;;;;9.02;3.75;;;;;;;1.63;80.65;97938.38;5069916;28;20028;-79
2023/11/25 04:14:10;;;;;;;9.70;3.90;;;;;;;1.62;80.36;97944.63;5063280;28;20028;-80
2023/11/25 04:16:36;;;;;;;8.02;4.57;;;;;;;1.61;80.95;97950.09;5069308;28;20043;-80
2023/11/25 04:19:01;;;;;;;10.52;3.42;;;;;;;1.71;80.74;97945.97;5064707;28;20120;-80
2023/11/25 04:21:27;;;;;;;11.05;4.65;;;;;;;1.62;81.25;97935.97;5064480;28;20055;-80
2023/11/25 04:23:54;;;;;;;10.40;4.15;;;;;;;1.64;81.34;97928.66;5049990;28;20123;-80
2023/11/25 04:26:20;;;;;;;12.15;4.35;;;;;;;1.57;81.80;97933.97;5066970;28;20035;-80
2023/11/25 04:28:46;;;;;;;10.45;4.28;;;;;;;1.57;81.30;97944.47;5082076;28;20123;-80
2023/11/25 04:31:12;;;;;;;8.25;4.68;;;;;;;1.63;81.46;97937.56;5067541;28;20029;-80
2023/11/25 04:33:37;;;;;;;8.90;4.28;;;;;;;1.71;81.35;97940.72;5063445;28;20059;-80
2023/11/25 04:36:03;;;;;;;12.50;4.38;;;;;;;1.48;81.49;97929.97;5062807;28;20095;-80
2023/11/25 04:38:29;;;;;;;18.45;4.80;;;;;;;1.62;81.55;97935.97;5043714;28;20029;-80
2023/11/25 04:40:55;;;;;;;10.00;5.00;;;;;;;1.52;81.90;97942.50;5064534;28;20029;-80
2023/11/25 04:43:20;;;;;;;12.93;3.67;;;;;;;1.67;81.35;97931.66;5063812;28;20075;-80
2023/11/25 04:45:45;;;;;;;13.68;5.72;;;;;;;1.64;81.41;97928.66;5070626;28;20048;-81
2023/11/25 04:48:11;;;;;;;8.13;5.53;;;;;;;1.50;81.86;97938.47;5047650;28;20089;-80
2023/11/25 04:50:36;;;;;;;9.20;4.72;;;;;;;1.37;82.56;97917.53;5065644;28;20028;-80
2023/11/25 04:53:01;;;;;;;12.82;5.35;;;;;;;1.64;82.27;97931.28;5067259;28;20036;-80
2023/11/25 04:55:27;;;;;;;12.57;4.25;;;;;;;1.49;82.48;97921.88;5062039;28;20468;-79
2023/11/25 04:57:54;;;;;;;10.27;4.70;;;;;;;1.30;82.44;97925.44;5063849;28;20028;-80
2023/11/25 05:00:21;;;;;;;10.00;5.00;;;;;;;1.48;82.51;97924.72;5043671;28;20024;-80
2023/11/25 05:02:47;;;;;;;8.15;3.97;;;;;;;1.66;82.22;97935.28;5064635;28;20028;-80
2023/11/25 05:05:12;;;;;;;11.18;4.15;;;;;;;1.41;82.88;97940.53;5061784;28;20581;-80
2023/11/25 05:07:38;;;;;;;5.95;4.60;;;;;;;1.44;83.13;97920.91;5036712;28;20074;-80
2023/11/25 05:10:05;;;;;;;7.35;3.63;;;;;;;1.50;83.08;97909.53;5048840;28;20075;-80
2023/11/25 05:12:31;;;;;;;6.05;3.80;;;;;;;1.56;82.84;97921.81;5062043;28;20029;-80
2023/11/25 05:14:56;;;;;;;14.02;5.43;;;;;;;1.65;82.51;97919.72;5066654;28;20058;-80
2023/11/25 05:17:22;;;;;;;11.15;5.03;;;;;;;1.49;83.18;97913.16;5066346;28;20539;-80
2023/11/25 05:19:48;;;;;;;10.18;4.32;;;;;;;1.55;83.52;97916.78;5088573;28;22066;-80
2023/11/25 05:22:13;;;;;;;10.95;3.75;;;;;;;1.60;83.25;97911.66;5070887;28;20068;-81
2023/11/25 05:24:38;;;;;;;10.60;3.90;;;;;;;1.76;82.49;97911.97;5065176;28;20031;-80
2023/11/25 05:27:04;;;;;;;12.82;4.78;;;;;;;1.64;82.46;97905.78;5061469;28;20032;-80
2023/11/25 05:29:29;;;;;;;11.25;4.15;;;;;;;1.72;82.77;97892.38;5067469;28;20488;-80
2023/11/25 05:31:55;;;;;;;7.90;3.78;;;;;;;1.65;83.23;97898.69;5071920;28;20032;-80
2023/11/25 05:34:20;;;;;;;7.90;3.53;;;;;;;1.63;82.62;97877.88;5070213;28;20032;-81
2023/11/25 05:36:49;;;;;;;10.93;4.70;;;;;;;1.68;82.87;97877.22;5070701;28;20472;-80
2023/11/25 05:39:14;;;;;;;13.35;3.78;;;;;;;1.71;83.32;97884.69;5081939;28;20040;-80
2023/11/25 05:41:40;;;;;;;9.15;4.85;;;;;;;1.67;83.50;97876.41;5068953;28;20039;-80
2023/11/25 05:44:10;;;;;;;15.55;5.32;;;;;;;1.67;83.26;97886.13;5068408;28;20468;-80
2023/11/25 05:46:36;;;;;;;9.88;3.63;;;;;;;1.58;83.44;97880.34;5072785;28;20036;-80
2023/11/25 05:49:02;;;;;;;10.35;5.07;;;;;;;1.63;83.81;97890.22;5070869;28;20400;-80
2023/11/25 05:51:38;;;;;;;12.90;3.80;;;;;;;1.62;83.90;97889.41;5071096;28;20036;-80
2023/11/25 05:54:05;;;;;;;13.35;4.50;;;;;;;1.56;84.02;97892.91;5069017;28;20496;-80
2023/11/25 05:56:31;;;;;;;8.82;4.90;;;;;;;1.66;83.65;97884.53;5063506;28;20505;-81
2023/11/25 05:58:57;;;;;;;9.38;3.85;;;;;;;1.67;83.50;97879.06;5065857;28;20036;-79
2023/11/25 06:01:23;;;;;;;9.07;4.38;;;;;;;1.80;83.64;97876.31;5071463;28;20024;-80
2023/11/25 06:03:52;;;;;;;11.82;3.63;;;;;;;1.73;83.22;97866.84;5055061;28;20393;-80
2023/11/25 06:06:22;;;;;;;16.48;4.75;;;;;;;1.73;84.29;97887.88;5051059;28;20029;-80
2023/11/25 06:08:48;;;;;;;13.30;4.75;;;;;;;1.67;84.49;97884.31;5068803;28;20366;-80
2023/11/25 06:11:21;;;;;;;9.25;5.63;;;;;;;1.77;84.16;97902.25;5064901;28;20071;-80
2023/11/25 06:13:46;;;;;;;12.02;6.30;;;;;;;1.70;83.79;97878.63;5064887;28;20032;-81
2023/11/25 06:16:12;;;;;;;14.20;7.18;;;;;;;1.76;83.77;97890.91;5073645;28;20388;-80
2023/11/25 06:18:38;;;;;;;13.10;7.38;;;;;;;1.76;84.14;97895.38;5055192;28;20032;-80
2023/11/25 06:21:04;;;;;;;10.05;4.85;;;;;;;1.76;83.81;97888.28;5069177;28;20048;-80
2023/11/25 06:23:30;;;;;;;10.52;5.05;;;;;;;1.78;84.59;97896.75;5086318;28;20024;-80
2023/11/25 06:25:56;;;;;;;12.60;5.72;;;;;;;1.85;83.91;97894.06;5085783;28;20555;-79
2023/11/25 06:28:24;;;;;;;18.60;5.47;;;;;;;1.74;84.55;97879.00;5082178;28;20036;-80
2023/11/25 06:30:53;;;;;;;22.40;6.80;;;;;;;1.79;84.53;97881.78;5072480;28;20032;-81
2023/11/25 06:33:29;;;;;;;17.08;7.63;;;;;;;1.73;84.59;97882.63;5085126;28;20365;-80
2023/11/25 06:35:55;;;;;;;;;;;;;;;1.88;84.34;97883.13;5053645;28;20721;-81
2023/11/25 06:38:21;;;;;;;15.43;8.77;;;;;;;1.83;84.17;97875.06;5053129;28;19958;-80
2023/11/25 06:40:47;;;;;;;17.05;8.73;;;;;;;1.96;83.96;97885.47;5070222;28;20552;-80
2023/11/25 06:43:13;;;;;;;14.82;7.80;;;;;;;1.97;83.78;97893.13;5070012;28;20032;-80
2023/11/25 06:45:40;;;;;;;17.10;6.43;;;;;;;1.98;83.70;97884.25;5070057;28;20033;-80
2023/11/25 06:48:06;;;;;;;11.95;8.02;;;;;;;2.00;83.80;97884.81;5069924;28;20033;-80
2023/11/25 06:50:31;;;;;;;14.20;7.40;;;;;;;1.90;83.91;97876.59;5060820;28;20089;-81
2023/11/25 06:52:56;;;;;;;10.82;7.18;;;;;;;1.88;83.76;97872.59;5064551;28;20040;-80
2023/11/25 06:55:22;;;;;;;13.25;7.25;;;;;;;1.88;84.10;97872.59;5068622;28;20036;-80
2023/11/25 06:57:49;;;;;;;14.63;8.68;;;;;;;2.02;84.03;97880.16;5069872;28;20476;-80
2023/11/25 07:00:15;;;;;;;15.70;7.10;;;;;;;2.02;83.72;97871.44;5045101;28;20043;-80
2023/11/25 07:02:41;;;;;;;11.40;7.13;;;;;;;1.98;84.32;97872.91;5064127;28;20070;-80
2023/11/25 07:05:10;;;;;;;16.00;7.00;;;;;;;2.04;83.95;97875.47;5068291;28;20396;-79
2023/11/25 07:07:36;;;;;;;12.55;5.85;;;;;;;2.05;84.24;97884.19;5063249;28;20036;-79
2023/11/25 07:10:03;;;;;;;44.45;12.90;;;;;;;1.96;83.93;97882.84;5059167;28;20545;-81
2023/11/25 07:12:30;;;;;;;10.75;6.32;;;;;;;1.97;83.79;97874.72;5065057;28;20040;-79
2023/11/25 07:14:56;;;;;;;14.98;6.72;;;;;;;1.98;84.24;97875.53;5066983;28;20510;-79
2023/11/25 07:17:21;;;;;;;9.10;6.47;;;;;;;1.93;84.34;97883.25;5070798;28;20106;-80
2023/11/25 07:19:47;;;;;;;19.20;7.43;;;;;;;1.90;84.50;97871.34;5070318;28;20028;-80
2023/11/25 07:22:13;;;;;;;12.98;6.20;;;;;;;2.00;84.36;97876.94;5068989;28;20039;-80
2023/11/25 07:24:39;;;;;;;17.65;7.10;;;;;;;1.98;84.38;97875.53;5062649;28;20033;-79
2023/11/25 07:27:06;;;;;;;14.57;8.00;;;;;;;2.02;84.19;97874.06;5059336;28;20459;-81
2023/11/25 07:29:33;;;;;;;21.65;8.15;;;;;;;1.99;84.51;97877.94;5067492;28;20035;-79
2023/11/25 07:32:02;;;;;;;16.98;6.30;;;;;;;1.99;84.25;97895.53;5068462;28;20515;-79
2023/11/25 07:34:29;;;;;;;13.73;6.20;;;;;;;2.08;84.57;97900.31;5064534;28;20052;-80
2023/11/25 07:36:55;;;;;;;16.48;6.57;;;;;;;2.01;84.42;97904.06;5067315;28;20024;-80
2023/11/25 07:39:22;;;;;;;14.40;7.57;;;;;;;1.74;85.46;97895.59;5067724;28;20124;-80
2023/11/25 07:41:54;;;;;;;10.93;6.75;;;;;;;1.67;85.54;97897.47;5082326;28;20031;-81
2023/11/25 07:44:21;;;;;;;18.40;8.38;;;;;;;2.12;85.05;97900.69;5069522;28;20458;-81
2023/11/25 07:46:47;;;;;;;14.65;7.45;;;;;;;2.12;84.67;97887.53;5064329;28;20107;-81
2023/11/25 07:49:13;;;;;;;16.38;6.88;;;;;;;2.20;84.56;97882.81;5068901;28;20132;-81
2023/11/25 07:51:38;;;;;;;9.82;6.40;;;;;;;2.24;84.11;97883.16;5065569;28;20107;-81
2023/11/25 07:54:04;;;;;;;19.15;7.45;;;;;;;2.04;84.98;97893.88;5067542;28;20034;-81
2023/11/25 07:56:30;;;;;;;13.43;6.70;;;;;;;2.03;84.50;97871.22;5070262;28;20028;-81
2023/11/25 07:58:55;;;;;;;22.00;7.38;;;;;;;2.06;84.82;97876.06;5047881;28;20036;-82
2023/11/25 08:01:21;;;;;;;13.77;6.50;;;;;;;2.11;85.19;97878.84;5064049;28;20036;-82
2023/11/25 08:03:46;;;;;;;22.70;6.28;;;;;;;2.02;85.28;97855.66;5033684;28;20029;-81
2023/11/25 08:06:15;;;;;;;17.73;5.72;;;;;;;2.16;84.87;97857.91;5051710;28;20377;-81
2023/11/25 08:08:41;;;;;;;15.82;5.75;;;;;;;2.27;85.10;97846.66;5064497;28;20049;-81
2023/11/25 08:11:06;;;;;;;12.05;5.47;;;;;;;2.20;85.29;97847.78;5081534;28;20106;-81
2023/11/25 08:13:32;;;;;;;19.15;6.25;;;;;;;2.18;85.47;97847.19;5037299;28;20021;-81
2023/11/25 08:15:59;;;;;;;20.38;6.38;;;;;;;2.16;85.47;97836.06;5051683;28;20024;-80
2023/11/25 08:18:24;;;;;;;16.73;5.18;;;;;;;2.17;85.22;97840.31;5059629;28;20033;-81
2023/11/25 08:20:49;;;;;;;11.70;5.32;;;;;;;2.29;85.25;97844.59;5070889;28;20039;-81
2023/11/25 08:23:15;;;;;;;18.63;5.65;;;;;;;2.26;85.12;97833.72;5066987;28;20438;-81
2023/11/25 08:25:42;;;;;;;15.45;5.18;;;;;;;2.22;85.83;97837.81;5065471;28;20045;-81
2023/11/25 08:28:07;;;;;;;19.65;5.60;;;;;;;2.37;85.56;97835.63;5047285;28;20481;-80
2023/11/25 08:30:32;;;;;;;14.60;5.65;;;;;;;2.24;85.49;97846.31;5052980;28;20055;-81
2023/11/25 08:32:59;;;;;;;12.95;5.40;;;;;;;2.40;85.25;97835.19;5064953;28;20028;-80
2023/11/25 08:35:25;;;;;;;13.63;4.20;;;;;;;2.48;85.36;97841.97;5065841;28;20032;-80
2023/11/25 08:37:50;;;;;;;25.38;17.50;;;;;;;2.26;86.18;97845.06;5064752;28;20032;-80
2023/11/25 08:40:16;;;;;;;20.05;5.55;;;;;;;2.44;84.88;97835.53;5065739;28;20028;-80
2023/11/25 08:42:45;;;;;;;19.27;5.22;;;;;;;2.53;85.40;97845.56;5065341;28;20016;-80
2023/11/25 08:45:11;;;;;;;18.20;5.80;;;;;;;2.42;85.57;97846.31;5067089;28;20040;-80
2023/11/25 08:47:38;;;;;;;17.63;5.68;;;;;;;2.53;85.43;97860.56;5068595;28;20083;-81
2023/11/25 08:50:07;;;;;;;16.48;3.97;;;;;;;2.59;85.26;97843.84;5087184;28;20466;-81
2023/11/25 08:52:38;;;;;;;17.77;5.13;;;;;;;2.45;85.65;97835.31;5068907;28;20106;-81
2023/11/25 08:55:09;;;;;;;10.25;3.97;;;;;;;2.43;85.42;97832.09;5064581;28;20036;-81
2023/11/25 08:57:38;;;;;;;17.45;5.60;;;;;;;2.56;85.62;97825.84;5063312;28;20043;-79
2023/11/25 09:00:14;;;;;;;17.83;4.68;;;;;;;2.47;85.26;97809.56;5063095;28;20381;-80
2023/11/25 09:02:40;;;;;;;20.92;4.45;;;;;;;2.48;85.62;97815.63;5063704;28;20416;-80
2023/11/25 09:05:06;;;;;;;18.83;6.10;;;;;;;2.54;86.07;97818.19;5047592;28;20033;-80
2023/11/25 09:07:31;;;;;;;11.23;4.13;;;;;;;2.41;86.28;97797.28;5067382;28;20487;-80
2023/11/25 09:09:57;;;;;;;13.73;4.30;;;;;;;2.46;86.08;97813.22;5066756;28;20036;-80
2023/11/25 09:12:22;;;;;;;10.55;3.65;;;;;;;2.43;86.47;97797.06;5062298;28;20024;-81
2023/11/25 09:14:48;;;;;;;12.48;3.90;;;;;;;2.49;86.52;97796.19;5067743;28;20524;-81
2023/11/25 09:17:15;;;;;;;11.77;3.83;;;;;;;2.52;86.43;97793.09;5061764;28;20025;-80
2023/11/25 09:19:41;;;;;;;17.70;3.95;;;;;;;2.50;86.08;97795.16;5068588;28;20024;-81
2023/11/25 09:22:07;;;;;;;17.13;3.95;;;;;;;2.38;86.74;97800.34;5023579;28;20063;-81
2023/11/25 09:24:33;;;;;;;7.93;2.80;;;;;;;2.35;87.09;97805.25;5057665;28;20050;-81
2023/11/25 09:26:58;;;;;;;20.35;7.03;;;;;;;2.27;87.39;97801.91;5065111;28;20033;-81
2023/11/25 09:29:24;;;;;;;14.13;4.00;;;;;;;2.40;87.16;97789.63;5066342;28;20021;-81
2023/11/25 09:31:49;;;;;;;7.00;3.22;;;;;;;2.41;87.22;97788.56;5062522;28;20021;-81
2023/11/25 09:34:15;;;;;;;6.68;3.50;;;;;;;2.48;87.37;97800.66;5046034;28;20040;-81
2023/11/25 09:36:40;;;;;;;10.13;4.15;;;;;;;2.44;87.40;97794.22;5069570;28;20035;-81
2023/11/25 09:39:09;;;;;;;15.15;4.57;;;;;;;2.38;87.61;97799.56;5062956;28;20032;-81
2023/11/25 09:41:35;;;;;;;11.35;3.28;;;;;;;2.51;87.95;97817.84;5059742;28;20032;-82
2023/11/25 09:44:05;;;;;;;2.78;2.25;;;;;;;2.50;87.10;97811.75;5065387;28;20073;-81
2023/11/25 09:46:32;;;;;;;12.50;2.90;;;;;;;2.46;87.61;97791.34;5029065;28;20124;-81
2023/11/25 09:48:57;;;;;;;12.70;3.38;;;;;;;2.57;86.97;97814.31;5039377;28;20043;-81
2023/11/25 09:51:24;;;;;;;3.97;2.88;;;;;;;2.50;87.29;97803.84;5064996;28;20032;-81
2023/11/25 09:53:56;;;;;;;7.95;2.60;;;;;;;2.66;87.57;97810.34;5058677;28;20107;-80
2023/11/25 09:56:21;;;;;;;3.30;2.35;;;;;;;2.60;87.56;97796.22;5062822;28;20402;-80
2023/11/25 09:58:48;;;;;;;10.55;3.22;;;;;;;2.62;87.28;97806.56;5064844;28;20028;-81
2023/11/25 10:01:14;;;;;;;10.10;2.92;;;;;;;2.66;87.31;97808.50;5066450;28;20020;-81
2023/11/25 10:03:43;;;;;;;3.50;2.08;;;;;;;2.63;87.25;97800.22;5059523;28;20033;-81
2023/11/25 10:06:09;;;;;;;4.43;2.10;;;;;;;2.64;87.76;97815.84;5068346;28;20032;-81
2023/11/25 10:08:35;;;;;;;6.70;2.30;;;;;;;2.49;87.79;97807.50;5072012;28;20024;-81
2023/11/25 10:11:08;;;;;;;5.50;2.05;;;;;;;2.67;87.62;97812.75;5071423;28;20029;-80
2023/11/25 10:13:43;;;;;;;3.33;1.90;;;;;;;2.59;87.11;97810.44;5068885;28;20042;-81
2023/11/25 10:16:09;;;;;;;4.77;2.27;;;;;;;2.65;87.79;97798.19;5072237;28;20632;-81
2023/11/25 10:18:39;;;;;;;3.33;2.00;;;;;;;2.66;87.37;97805.88;5052188;28;20273;-80
2023/11/25 10:21:06;;;;;;;3.60;1.95;;;;;;;2.55;86.99;97797.94;5064005;28;20078;-81
2023/11/25 10:23:33;;;;;;;4.82;1.92;;;;;;;2.71;87.57;97798.09;5050177;28;20033;-81
2023/11/25 10:26:03;;;;;;;3.97;1.90;;;;;;;2.73;86.63;97782.09;5068151;28;20119;-81
2023/11/25 10:28:32;;;;;;;3.55;1.88;;;;;;;2.80;87.45;97798.56;5081487;28;20064;-81
2023/11/25 10:30:59;;;;;;;21.65;6.50;;;;;;;2.60;87.81;97792.81;5061790;28;20400;-81
2023/11/25 10:33:28;;;;;;;3.45;1.88;;;;;;;2.85;87.46;97788.16;5061240;28;20036;-81
2023/11/25 10:35:55;;;;;;;4.20;2.58;;;;;;;2.85;87.41;97777.63;5068553;28;20488;-81
2023/11/25 10:38:26;;;;;;;2.30;1.52;;;;;;;2.83;87.46;97779.69;5053483;28;20459;-81
2023/11/25 10:40:57;;;;;;;5.72;2.20;;;;;;;2.67;87.68;97772.41;5053491;28;20417;-81
2023/11/25 10:43:22;;;;;;;1.50;1.40;;;;;;;2.71;88.00;97771.75;5070079;28;20119;-81
2023/11/25 10:45:47;;;;;;;2.00;1.70;;;;;;;2.85;87.20;97773.19;5062483;28;20123;-81
2023/11/25 10:48:14;;;;;;;1.50;1.20;;;;;;;2.82;87.36;97776.25;5034042;28;20120;-81
2023/11/25 10:50:43;;;;;;;1.73;1.60;;;;;;;2.92;87.07;97771.25;5062147;28;20480;-80
2023/11/25 10:53:13;;;;;;;4.88;1.70;;;;;;;2.95;86.85;97785.78;5069742;28;20063;-81
2023/11/25 10:55:42;;;;;;;7.47;2.55;;;;;;;2.89;87.25;97781.41;5067554;28;20036;-81
2023/11/25 10:58:09;;;;;;;3.88;2.70;;;;;;;3.01;87.34;97767.22;5070331;28;20036;-81
2023/11/25 11:00:35;;;;;;;4.63;2.25;;;;;;;3.03;86.75;97775.75;5069326;28;20138;-80
2023/11/25 11:03:05;;;;;;;2.55;2.15;;;;;;;2.90;87.91;97770.69;5065694;28;20037;-80
2023/11/25 11:05:42;;;;;;;2.53;2.20;;;;;;;3.09;87.34;97774.03;5062006;28;20020;-81
2023/11/25 11:08:24;;;;;;;4.65;2.65;;;;;;;2.99;87.07;97777.19;5067256;28;20029;-81
2023/11/25 11:11:03;;;;;;;3.13;2.38;;;;;;;3.07;87.21;97767.38;5067510;28;20526;-80
2023/11/25 11:13:35;;;;;;;2.42;1.95;;;;;;;3.07;86.62;97751.56;5069544;28;20059;-81
2023/11/25 11:16:08;;;;;;;5.60;2.72;;;;;;;2.84;87.81;97762.88;5065961;28;20439;-81
2023/11/25 11:18:39;;;;;;;2.22;2.00;;;;;;;3.10;87.74;97759.00;5069050;28;20051;-81
2023/11/25 11:21:09;;;;;;;3.92;1.70;;;;;;;3.09;87.69;97749.47;5086954;28;20036;-81
2023/11/25 11:23:38;;;;;;;2.03;1.85;;;;;;;3.06;87.78;97742.81;5061299;28;21736;-81
2023/11/25 11:26:10;;;;;;;5.13;2.00;;;;;;;3.23;87.36;97762.25;5031692;28;20519;-82
2023/11/25 11:29:06;;;;;;;4.85;2.40;;;;;;;2.97;88.50;97754.75;5063316;28;20376;-82
2023/11/25 11:32:06;;;;;;;3.53;2.05;;;;;;;2.94;88.68;97747.28;5079403;28;20051;-81
2023/11/25 11:34:33;;;;;;;3.88;1.98;;;;;;;2.96;88.72;97743.41;5062611;28;20029;-81
2023/11/25 11:37:00;;;;;;;6.70;2.30;;;;;;;2.85;88.97;97741.56;5067897;28;20039;-80